Space Weather Message
Issued by NWS

Home | Current Version | Previous Version | Text Only | Print | Product List | Glossary On
Versions: 1 2 3 4 5 6 7 8 9 10 11 12 13 14 15
000
NZUS99 KLBF 310305
SUMOGA

DAILY SUMMARY AT 18:00:27 LOCAL TIME ON 14/10/30
PEAK WIND SINCE 00:00 320/19 AT 08:06
MAXIMUM TEMP SINCE 00:00 67 AT 13:31
MINIMUM TEMP SINCE 00:00 35 AT 02:19
PRECIP RATE 0.00
PRECIP THIS HOUR 0.00
PRECIP PREV HOUR 0.00
PRECIP 6 HOUR 0.00
PRECIP SINCE 00:00 0.00
t+)="4ELEV:=$ UTC:=$4DATE:=% CIG:=( VSBY:=* PRSNT WEA:=2 NOTAM:=+4PCPN:=, TEMP/DWPNT:=- WND:=. ALTM:=/ DNS ALT:=0 RMRKS:=)B=1 THUNST:(=$&01:00=$;14/10/31=  OGALLALA - SEARLE FIELD    OGALLALA, NE.=" OGA=";3278="Rt=6 t=$&01:00=$;14/10/31=  OGALLALA - SEARLE FIELD    OGALLALA, NE.=" OGA=";3278="Rt=,-t49=,1/34 (F)=,p095=+p008=-&t040=-p040=-*/06=-3=-;=.&t30.36=/*t=2(NONE                        (=(&t10=(/=(p010050560507E09101XX=%&tCLR=%3=*+t=+:=0&t=1(t=!pN00N00N00N00N00N00N00N00N00N00N00N00N00="pN00N00N00N00N00N00N00N00N00N00N00N00N00=)It=5 t=4 tMETAR KOGA 310056Z AUTO 04006KT 10SM CLR 09/01 A3036 RMK AO2=#p>0000>57CF=6 =-&t040=-p040=-*/06=-3=-;=6 =-&t040=-p040=-*/06=-3=-;=6 =-&t040=-p040=-*/06=-3=-;=6 =-&t040=-p040=-*/06=-3=-;=6 =-&t040=-p040=-*/06=-3=-;=6 =-&t040=-p040=-*/06=-3=-;=6
NO CARRIER

NO CARRIER

NO CARRIER

NO CARRIER

NO CARRIER

NO CARRIER

NO CARRIER

NO CARRIER

NO CARRIER




USA.gov is the U.S. government's official web portal to all federal, state and local government web resources and services.